Martin, Utah
Current Conditions -  °F | °C
As of 10:53 AM on Thursday 29 Jan 2015 (Local Time) from KPUC Reporting Station
Clear Clear  
Wind Chill: 45°   Ceiling: Unl
Heat Index: 45°   Visibility: 10mi
Dew Point: 29°   Wind: 3mph
Humidity: 53%   Direction: 100°E
Pressure: 30.37"   Gusts: NA
Location:  39.7304°N, 110.917°W
Report Text: KPUC 291753Z AUTO 10003KT 10SM CLR 07/M02 A3037 RMK AO2 SLP301 T00721017 10078 20017 51008
Loading
Personal Weather Stations






























Interactive Weather Map New forecast layout! Learn more

10-Day Weather Forecast

Advertisements
Track Severe Weather on mobile